Aérodrome :
LOGIN :

S'inscrire | Disclaimer

   EN    FR    IT 

 










Légende :    VFR   VFR Marginal   IFR   IFR Intensif   IFR Très Intensif
Visi : 
Plafond : 
>= 8 km
>= 3000ft
5 à 8 km
1000 à 3000 ft
1500m à 5 km
500 à 1000 ft
800 à 1500m
200 à 500 ft
< 800m
< 200 ft
Symboles :   Orages  Brouillard  Fortes neiges  Fortes précipitations  Vent > 20 kt
SIGMETs :   Divers  Orages  Givrage  Turbulence  Onde Orograph.  Cendres Volcan.






- Altitude de l'aérodrome : 218 ft
- Code IATA : LBG


LFPB - Paris / Le Bourget

DERNIER METAR :
  • 252100Z AUTO 19010KT 9999 FEW015 SCT058 BKN072 11/10 Q1002 BECMG BKN010 BKN020

METARs EXPIRÉS :
  • 252030Z AUTO 19006KT 9999 SCT015 SCT032 BKN076 11/10 Q1002 BECMG BKN010 BKN020
  • 252000Z AUTO 18006KT 9999 SCT030 BKN058 BKN094 11/10 Q1002 BECMG BKN010 BKN020
  • 251930Z AUTO 18008KT 9999 FEW033 OVC056 11/10 Q1002 BECMG BKN010 BKN020
  • 251900Z AUTO 19008KT 9999 -RA FEW016 OVC048 11/10 Q1002 BECMG BKN010 BKN020
  • 251830Z AUTO 19007KT 160V220 9999 -RA FEW043 BKN058 BKN070 11/09 Q1002 BECMG BKN010 BKN020

TAF TAF LFPB
Valide du 25 à 18h jusqu'au 26 à 18h UTC


251700Z 2518/2618 20010KT 9999 BKN010 BKN020
TEMPO 2518/2519 4000 SHRA SCT008 SCT015CB
BECMG 2604/2606 CAVOK
PROB40
TEMPO 2612/2616 22010G25KT
PROB40
TEMPO 2616/2618 4000 SHRA SCT015CB
ATIS : +33 1 48 62 43 92



MET'MAP, la Météo Aéronautique d'un coup d'oeil ! - Copyright ORBIFLY Décembre 2007 - Disclaimer

ORBIFLY MET'MAP TEAM :

Programmation & Développement : Alexandra Zaïnal
Sur une idée originale de : Baudouin d'Aumeries
Assistance à la programmation : Marc-Olivier Méhu
Soutien technique & logistique : Manuel Goepfert

Contact : metmap@orbifly.com




SOURCES & CREDITS :

   NOAA